Time;durP1;ratioP1;P1;durP2;ratioP2;P2;SDS_P1;SDS_P2;PMS_P1;PMS_P2;Temp;Humidity;BMP_temperature;BMP_pressure;BME280_temperature;BME280_humidity;BME280_pressure;Samples;Min_cycle;Max_cycle;Signal;HPM_P1;HPM_P2
2023/12/02 00:00:20;;;;;;;21.83;12.65;;;;;;;0.81;100.00;100490.75;4965410;28;20049;-44
2023/12/02 00:02:47;;;;;;;23.13;13.27;;;;;;;0.85;100.00;100491.81;4967851;28;20059;-50
2023/12/02 00:05:15;;;;;;;24.20;13.27;;;;;;;0.88;100.00;100493.94;4963889;28;20110;-49
2023/12/02 00:07:42;;;;;;;21.55;13.52;;;;;;;0.92;100.00;100495.00;4950796;28;20047;-50
2023/12/02 00:10:11;;;;;;;22.05;11.43;;;;;;;0.94;100.00;100495.53;4969368;28;20090;-51
2023/12/02 00:12:39;;;;;;;18.73;9.80;;;;;;;0.94;100.00;100499.06;4965344;28;20049;-47
2023/12/02 00:15:07;;;;;;;17.05;9.45;;;;;;;0.95;100.00;100489.00;4969996;28;20058;-45
2023/12/02 00:17:35;;;;;;;18.17;9.88;;;;;;;0.94;100.00;100487.34;4969788;28;20051;-46
2023/12/02 00:20:02;;;;;;;16.98;9.90;;;;;;;0.91;100.00;100487.94;4959798;28;20744;-46
2023/12/02 00:22:30;;;;;;;17.70;8.88;;;;;;;0.90;100.00;100480.88;4957584;28;20047;-47
2023/12/02 00:24:57;;;;;;;14.63;7.78;;;;;;;0.86;100.00;100477.91;4954284;28;20410;-45
2023/12/02 00:27:24;;;;;;;15.82;8.13;;;;;;;0.84;100.00;100480.09;4961796;28;20047;-46
2023/12/02 00:29:52;;;;;;;16.10;9.65;;;;;;;0.82;100.00;100481.50;4970623;28;20058;-46
2023/12/02 00:32:19;;;;;;;16.58;9.55;;;;;;;0.81;100.00;100482.56;4969863;28;20035;-46
2023/12/02 00:34:56;;;;;;;16.83;8.55;;;;;;;0.82;100.00;100476.03;4963042;28;20039;-45
2023/12/02 00:37:25;;;;;;;20.77;11.00;;;;;;;0.82;100.00;100478.78;4969671;28;20054;-44
2023/12/02 00:39:52;;;;;;;17.20;10.32;;;;;;;0.84;100.00;100479.28;4969807;28;20050;-46
2023/12/02 00:42:19;;;;;;;19.45;10.02;;;;;;;0.84;100.00;100479.28;4956093;28;20050;-46
2023/12/02 00:44:47;;;;;;;16.17;9.55;;;;;;;0.85;100.00;100472.75;4958709;28;20046;-46
2023/12/02 00:47:14;;;;;;;17.17;9.18;;;;;;;0.89;100.00;100477.31;4969861;28;20054;-44
2023/12/02 00:49:41;;;;;;;15.98;9.18;;;;;;;0.91;100.00;100471.56;4962693;28;20062;-47
2023/12/02 00:52:10;;;;;;;20.08;10.02;;;;;;;0.95;100.00;100475.38;4954628;28;20118;-47
2023/12/02 00:54:37;;;;;;;25.33;11.95;;;;;;;0.96;100.00;100461.44;4970766;28;20049;-46
2023/12/02 00:57:04;;;;;;;13.43;7.85;;;;;;;0.96;100.00;100466.06;4957834;28;20090;-46
2023/12/02 00:59:32;;;;;;;15.70;7.82;;;;;;;0.98;100.00;100463.88;4962263;28;20055;-45
2023/12/02 01:01:59;;;;;;;11.00;6.10;;;;;;;1.01;100.00;100468.75;4966590;28;20057;-45
2023/12/02 01:04:26;;;;;;;13.95;8.75;;;;;;;1.01;100.00;100455.09;4970545;28;20053;-45
2023/12/02 01:06:54;;;;;;;12.82;9.68;;;;;;;1.02;100.00;100462.19;4970698;28;20047;-47
2023/12/02 01:09:21;;;;;;;12.93;7.38;;;;;;;1.02;100.00;100475.81;4961784;28;20040;-47
2023/12/02 01:11:48;;;;;;;12.18;7.13;;;;;;;1.02;100.00;100465.75;4946877;29;20393;-45
2023/12/02 01:14:16;;;;;;;12.52;7.57;;;;;;;1.01;100.00;100457.84;4961738;28;20051;-45
2023/12/02 01:16:43;;;;;;;15.73;8.82;;;;;;;1.01;100.00;100464.09;4965896;28;20051;-47
2023/12/02 01:19:10;;;;;;;11.75;6.40;;;;;;;1.02;100.00;100464.94;4951409;28;20387;-45
2023/12/02 01:21:38;;;;;;;10.40;7.65;;;;;;;1.01;100.00;100458.66;4964180;28;20055;-48
2023/12/02 01:24:06;;;;;;;13.07;7.35;;;;;;;1.01;100.00;100463.28;4961781;28;20053;-46
2023/12/02 01:26:33;;;;;;;12.68;6.93;;;;;;;1.01;100.00;100458.66;4953182;28;20055;-46
2023/12/02 01:29:01;;;;;;;13.65;7.22;;;;;;;1.01;100.00;100461.38;4962066;28;20484;-46
2023/12/02 01:31:28;;;;;;;10.13;6.10;;;;;;;1.03;100.00;100455.66;4970307;28;20054;-46
2023/12/02 01:33:55;;;;;;;11.18;6.00;;;;;;;1.04;100.00;100457.25;4959105;28;20047;-46
2023/12/02 01:36:23;;;;;;;10.80;5.97;;;;;;;1.06;100.00;100465.97;4963676;28;20401;-48
2023/12/02 01:38:50;;;;;;;12.35;5.57;;;;;;;1.07;100.00;100456.69;4963215;28;20051;-45
2023/12/02 01:41:17;;;;;;;10.52;5.15;;;;;;;1.08;100.00;100461.88;4969978;28;20050;-45
2023/12/02 01:43:45;;;;;;;8.52;5.00;;;;;;;1.09;100.00;100463.47;4969835;28;20416;-45
2023/12/02 01:46:15;;;;;;;7.28;4.75;;;;;;;1.09;100.00;100460.75;4970360;28;20042;-46
2023/12/02 01:48:43;;;;;;;7.75;4.80;;;;;;;1.08;100.00;100458.31;4969274;28;20054;-50
2023/12/02 01:51:11;;;;;;;10.23;4.65;;;;;;;1.06;100.00;100461.31;4958366;28;20030;-47
2023/12/02 01:53:41;;;;;;;10.07;5.93;;;;;;;1.07;100.00;100464.88;4966662;28;20386;-48
2023/12/02 01:56:09;;;;;;;7.25;4.50;;;;;;;1.05;100.00;100457.00;4959058;28;20043;-49
2023/12/02 01:58:37;;;;;;;12.85;5.22;;;;;;;1.05;100.00;100467.06;4960827;28;20043;-48
2023/12/02 02:01:04;;;;;;;8.32;4.72;;;;;;;1.03;100.00;100455.66;4969319;28;20051;-46
2023/12/02 02:03:33;;;;;;;8.88;4.70;;;;;;;1.01;100.00;100455.94;4966939;28;20062;-45
2023/12/02 02:06:00;;;;;;;8.85;4.10;;;;;;;0.99;100.00;100466.31;4962094;28;20049;-48
2023/12/02 02:08:27;;;;;;;6.97;4.47;;;;;;;0.98;100.00;100456.50;4967239;28;20057;-49
2023/12/02 02:10:57;;;;;;;6.40;3.90;;;;;;;0.95;100.00;100459.81;4964717;28;20043;-47
2023/12/02 02:13:25;;;;;;;5.20;3.63;;;;;;;0.91;100.00;100468.84;4949227;28;20039;-51
2023/12/02 02:15:52;;;;;;;10.10;4.10;;;;;;;0.89;100.00;100460.16;4968923;28;20035;-48
2023/12/02 02:18:20;;;;;;;6.45;4.05;;;;;;;0.84;100.00;100463.75;4967298;28;20058;-46
2023/12/02 02:20:52;;;;;;;7.82;4.13;;;;;;;0.81;99.88;100464.31;4963580;28;20429;-45
2023/12/02 02:23:23;;;;;;;7.38;4.93;;;;;;;0.78;100.00;100469.53;4958231;28;20073;-46
2023/12/02 02:25:52;;;;;;;8.87;3.77;;;;;;;0.75;100.00;100462.75;4960435;28;20047;-46
2023/12/02 02:28:21;;;;;;;6.65;3.38;;;;;;;0.74;100.00;100457.59;4964357;28;20051;-47
2023/12/02 02:30:49;;;;;;;4.40;2.88;;;;;;;0.73;99.83;100464.13;4971953;28;20049;-46
2023/12/02 02:33:16;;;;;;;4.32;3.00;;;;;;;0.71;100.00;100466.34;4972156;28;20142;-48
2023/12/02 02:35:44;;;;;;;5.00;2.78;;;;;;;0.69;100.00;100457.66;4971380;28;20046;-49
2023/12/02 02:38:12;;;;;;;4.63;2.90;;;;;;;0.68;99.76;100469.63;4973206;28;20046;-46
2023/12/02 02:40:39;;;;;;;4.63;2.75;;;;;;;0.67;99.74;100468.81;4971743;28;20464;-46
2023/12/02 02:43:06;;;;;;;4.60;3.30;;;;;;;0.66;99.73;100469.09;4972619;28;20047;-46
2023/12/02 02:45:33;;;;;;;4.95;2.97;;;;;;;0.67;99.85;100470.72;4972138;28;20409;-48
2023/12/02 02:48:01;;;;;;;4.03;2.58;;;;;;;0.67;99.99;100473.44;4967095;28;20066;-44
2023/12/02 02:50:28;;;;;;;5.22;2.80;;;;;;;0.67;100.00;100468.81;4970312;28;20049;-46
2023/12/02 02:52:56;;;;;;;4.72;2.63;;;;;;;0.68;99.75;100478.63;4972240;28;20050;-46
2023/12/02 02:55:23;;;;;;;7.20;3.22;;;;;;;0.67;99.66;100465.25;4971491;28;20053;-50
2023/12/02 02:57:50;;;;;;;4.13;2.22;;;;;;;0.66;99.73;100466.38;4963821;28;20039;-48
2023/12/02 03:02:53;;;;;;;5.20;2.70;;;;;;;0.59;99.87;100464.78;4915232;23;20047;-45
2023/12/02 03:05:21;;;;;;;4.95;2.47;;;;;;;0.57;99.85;100464.28;4965222;28;20047;-49
2023/12/02 03:07:52;;;;;;;4.38;2.63;;;;;;;0.56;99.83;100462.63;4964278;28;20058;-46
2023/12/02 03:10:19;;;;;;;3.55;2.65;;;;;;;0.57;99.64;100467.00;4971180;28;20042;-47
2023/12/02 03:12:46;;;;;;;3.63;2.45;;;;;;;0.55;99.82;100471.94;4969887;28;20054;-45
2023/12/02 03:15:14;;;;;;;4.20;2.50;;;;;;;0.54;99.82;100466.75;4969972;28;20042;-46
2023/12/02 03:17:43;;;;;;;5.13;3.45;;;;;;;0.54;99.60;100464.84;4971049;28;20054;-49
2023/12/02 03:20:11;;;;;;;6.05;2.15;;;;;;;0.52;99.71;100456.16;4970337;28;20401;-46
2023/12/02 03:22:38;;;;;;;3.53;2.08;;;;;;;0.52;99.52;100458.06;4970344;28;20043;-46
2023/12/02 03:25:06;;;;;;;3.95;2.45;;;;;;;0.50;99.45;100460.25;4968686;28;20046;-48
2023/12/02 03:27:33;;;;;;;3.33;2.40;;;;;;;0.50;99.71;100465.72;4967786;28;20047;-46
2023/12/02 03:30:01;;;;;;;5.50;2.60;;;;;;;0.48;99.49;100460.53;4965467;28;20042;-46
2023/12/02 03:32:28;;;;;;;3.97;2.63;;;;;;;0.48;99.20;100468.69;4968863;28;20043;-47
2023/12/02 03:34:55;;;;;;;4.18;2.22;;;;;;;0.45;99.44;100457.59;4969146;28;20620;-47
2023/12/02 03:37:23;;;;;;;5.70;2.85;;;;;;;0.41;99.40;100465.50;4964685;28;20042;-47
2023/12/02 03:39:50;;;;;;;6.13;2.92;;;;;;;0.39;99.29;100456.81;4969217;28;20523;-45
2023/12/02 03:42:17;;;;;;;11.35;3.45;;;;;;;0.38;99.37;100457.91;4970233;28;20051;-46
2023/12/02 03:44:45;;;;;;;5.50;3.45;;;;;;;0.38;99.36;100465.25;4967210;28;20043;-45
2023/12/02 03:47:12;;;;;;;3.85;2.95;;;;;;;0.34;99.01;100450.59;4968682;28;20149;-47
2023/12/02 03:49:40;;;;;;;6.80;2.88;;;;;;;0.33;99.12;100460.66;4969765;28;20076;-45
2023/12/02 03:52:07;;;;;;;3.72;2.35;;;;;;;0.33;99.10;100454.41;4969931;28;20050;-47
2023/12/02 03:54:34;;;;;;;4.35;2.33;;;;;;;0.29;99.07;100445.19;4964202;28;20048;-45
2023/12/02 03:57:02;;;;;;;5.72;2.63;;;;;;;0.26;99.24;100457.47;4969622;28;20708;-45
2023/12/02 03:59:29;;;;;;;4.38;2.65;;;;;;;0.24;99.06;100446.03;4969413;28;20389;-46
2023/12/02 04:01:57;;;;;;;3.50;2.90;;;;;;;0.22;99.17;100450.94;4958315;28;20051;-51
2023/12/02 04:04:24;;;;;;;11.35;3.40;;;;;;;0.21;99.04;100453.97;4949807;29;20058;-49
2023/12/02 04:06:52;;;;;;;5.60;2.70;;;;;;;0.18;99.02;100454.53;4949711;29;20044;-47
2023/12/02 04:09:19;;;;;;;8.48;3.47;;;;;;;0.14;99.19;100442.56;4950450;29;20523;-47
2023/12/02 04:11:46;;;;;;;4.90;3.20;;;;;;;0.13;99.05;100444.50;4950417;29;20528;-47
2023/12/02 04:14:14;;;;;;;5.75;3.42;;;;;;;0.11;99.01;100449.38;4949965;29;20481;-47
2023/12/02 04:16:42;;;;;;;4.63;3.08;;;;;;;0.08;99.21;100439.06;4949294;29;20047;-46
2023/12/02 04:19:09;;;;;;;4.47;2.80;;;;;;;0.06;99.17;100443.97;4949359;29;20058;-45
2023/12/02 04:21:41;;;;;;;3.90;2.85;;;;;;;0.06;99.33;100441.25;4950203;29;20563;-45
2023/12/02 04:24:09;;;;;;;8.25;2.30;;;;;;;0.05;99.07;100442.38;4950592;29;20073;-46
2023/12/02 04:26:37;;;;;;;3.30;2.58;;;;;;;0.03;99.29;100447.28;4946612;29;20044;-45
2023/12/02 04:29:04;;;;;;;5.15;2.85;;;;;;;0.02;99.33;100448.38;4949406;29;20044;-45
2023/12/02 04:31:32;;;;;;;3.92;2.70;;;;;;;0.03;99.37;100450.00;4949217;29;20058;-45
2023/12/02 04:33:59;;;;;;;5.50;2.50;;;;;;;0.00;99.05;100454.09;4950602;29;20047;-47
2023/12/02 04:36:26;;;;;;;4.03;2.50;;;;;;;0.01;99.12;100446.75;4947193;29;20051;-44
2023/12/02 04:38:56;;;;;;;3.75;2.50;;;;;;;0.00;99.31;100445.94;4950011;29;20781;-47
2023/12/02 04:41:24;;;;;;;3.83;3.03;;;;;;;-0.01;99.25;100451.66;4947996;29;20055;-45
2023/12/02 04:43:51;;;;;;;2.88;2.50;;;;;;;-0.04;99.19;100447.59;4948628;29;20062;-48
2023/12/02 04:46:18;;;;;;;4.60;2.58;;;;;;;-0.07;99.15;100450.06;4949420;29;20039;-45
2023/12/02 04:48:46;;;;;;;3.53;2.47;;;;;;;-0.09;99.22;100444.09;4948315;29;20047;-45
2023/12/02 04:51:13;;;;;;;5.13;2.90;;;;;;;-0.13;99.12;100451.19;4942655;28;20058;-45
2023/12/02 04:53:40;;;;;;;6.20;3.15;;;;;;;-0.22;99.06;100445.56;4949616;29;20055;-45
2023/12/02 04:56:08;;;;;;;5.85;3.40;;;;;;;-0.24;99.06;100441.47;4950455;29;20516;-46
2023/12/02 04:58:35;;;;;;;4.45;3.40;;;;;;;-0.25;99.35;100448.81;4950741;29;20051;-49
2023/12/02 05:01:04;;;;;;;8.32;4.20;;;;;;;-0.27;99.46;100448.31;4950009;28;20079;-49
2023/12/02 05:03:31;;;;;;;8.00;4.70;;;;;;;-0.25;99.37;100453.44;4950103;28;20054;-45
2023/12/02 05:05:59;;;;;;;8.43;5.10;;;;;;;-0.25;99.46;100462.44;4950566;29;20047;-45
2023/12/02 05:08:26;;;;;;;8.45;5.28;;;;;;;-0.25;99.22;100461.59;4950685;29;20051;-45
2023/12/02 05:10:54;;;;;;;8.95;5.95;;;;;;;-0.26;99.49;100452.63;4950325;28;20040;-48
2023/12/02 05:13:21;;;;;;;6.57;4.45;;;;;;;-0.28;99.36;100456.72;4949602;29;20047;-46
2023/12/02 05:15:49;;;;;;;8.00;3.30;;;;;;;-0.30;99.34;100461.63;4950510;29;20058;-46
2023/12/02 05:18:16;;;;;;;4.72;2.92;;;;;;;-0.34;99.20;100458.66;4950381;29;20089;-46
2023/12/02 05:20:43;;;;;;;4.55;3.13;;;;;;;-0.33;99.29;100465.72;4950012;29;20524;-45
2023/12/02 05:23:10;;;;;;;4.20;2.47;;;;;;;-0.31;99.35;100462.72;4949868;29;20058;-45
2023/12/02 05:25:38;;;;;;;4.47;3.15;;;;;;;-0.33;99.23;100468.44;4950552;28;20438;-44
2023/12/02 05:28:05;;;;;;;6.63;3.38;;;;;;;-0.35;99.29;100467.94;4948868;29;20047;-45
2023/12/02 05:30:34;;;;;;;3.75;2.95;;;;;;;-0.35;99.43;100461.66;4950247;29;20063;-44
2023/12/02 05:33:01;;;;;;;5.63;2.72;;;;;;;-0.37;99.31;100467.38;4950606;28;20051;-48
2023/12/02 05:35:29;;;;;;;5.28;2.92;;;;;;;-0.42;99.27;100469.31;4949997;28;20066;-49
2023/12/02 05:37:57;;;;;;;3.35;1.92;;;;;;;-0.42;99.16;100461.97;4948769;29;20059;-48
2023/12/02 05:40:24;;;;;;;5.35;2.75;;;;;;;-0.41;99.51;100463.59;4950141;29;20066;-45
2023/12/02 05:42:51;;;;;;;2.97;2.67;;;;;;;-0.37;99.57;100463.88;4949659;29;20051;-45
2023/12/02 05:45:19;;;;;;;4.18;2.65;;;;;;;-0.35;99.56;100465.22;4949717;29;20077;-45
2023/12/02 05:47:46;;;;;;;7.60;2.15;;;;;;;-0.33;99.44;100470.34;4949516;29;20506;-43
2023/12/02 05:50:13;;;;;;;4.35;2.72;;;;;;;-0.33;99.12;100470.34;4949869;29;20572;-45
2023/12/02 05:52:41;;;;;;;3.40;1.90;;;;;;;-0.32;99.06;100461.13;4949109;28;20657;-46
2023/12/02 05:55:08;;;;;;;3.67;2.33;;;;;;;-0.33;99.13;100462.19;4949997;29;20678;-46
2023/12/02 05:57:37;;;;;;;2.80;1.90;;;;;;;-0.35;99.20;100458.94;4949228;29;20509;-46
2023/12/02 06:00:05;;;;;;;3.33;2.05;;;;;;;-0.35;98.90;100462.50;4949891;29;20457;-45
2023/12/02 06:02:32;;;;;;;3.72;1.85;;;;;;;-0.35;98.78;100459.78;4939608;28;20052;-44
2023/12/02 06:05:00;;;;;;;2.00;1.65;;;;;;;-0.34;99.02;100463.28;4968904;28;20047;-46
2023/12/02 06:07:27;;;;;;;3.28;1.92;;;;;;;-0.34;98.89;100457.84;4968163;28;20043;-45
2023/12/02 06:09:55;;;;;;;4.05;1.95;;;;;;;-0.35;98.82;100458.94;4951544;28;20043;-45
2023/12/02 06:12:22;;;;;;;3.28;1.60;;;;;;;-0.36;98.69;100455.41;4969036;28;20039;-44
2023/12/02 06:14:49;;;;;;;2.80;1.95;;;;;;;-0.34;98.78;100461.38;4968889;28;20043;-45
2023/12/02 06:17:17;;;;;;;2.33;1.70;;;;;;;-0.35;98.90;100450.78;4968908;28;20134;-45
2023/12/02 06:19:45;;;;;;;7.10;2.20;;;;;;;-0.37;98.66;100447.53;4960859;28;20077;-45
2023/12/02 06:22:13;;;;;;;3.70;2.00;;;;;;;-0.38;98.81;100457.59;4967139;28;20054;-45
2023/12/02 06:24:40;;;;;;;3.45;2.10;;;;;;;-0.40;98.70;100448.09;4964866;28;20486;-46
2023/12/02 06:27:08;;;;;;;3.92;2.25;;;;;;;-0.42;98.53;100444.81;4953977;28;20527;-45
2023/12/02 06:29:35;;;;;;;2.80;2.17;;;;;;;-0.44;98.54;100447.00;4967894;28;20055;-45
2023/12/02 06:32:02;;;;;;;3.33;2.15;;;;;;;-0.44;98.52;100447.00;4967825;28;20051;-45
2023/12/02 06:34:30;;;;;;;3.25;2.33;;;;;;;-0.43;98.68;100440.50;4968016;28;20051;-44
2023/12/02 06:36:57;;;;;;;3.00;1.85;;;;;;;-0.42;98.67;100442.09;4967114;28;20051;-45
2023/12/02 06:39:24;;;;;;;5.55;1.90;;;;;;;-0.44;98.71;100447.00;4959639;28;20062;-45
2023/12/02 06:41:52;;;;;;;2.45;2.00;;;;;;;-0.44;98.65;100441.56;4963292;28;20051;-45
2023/12/02 06:44:19;;;;;;;3.70;2.17;;;;;;;-0.46;98.41;100441.88;4962266;28;20047;-46
2023/12/02 06:46:46;;;;;;;2.92;1.85;;;;;;;-0.47;98.56;100431.25;4967771;28;20047;-46
2023/12/02 06:49:13;;;;;;;4.30;1.85;;;;;;;-0.47;98.30;100437.50;4967427;28;20047;-46
2023/12/02 06:51:41;;;;;;;3.35;2.42;;;;;;;-0.46;98.69;100441.06;4967193;28;20058;-44
2023/12/02 06:54:08;;;;;;;3.90;2.05;;;;;;;-0.47;98.60;100433.97;4967732;28;20062;-44
2023/12/02 06:56:35;;;;;;;4.80;2.13;;;;;;;-0.48;98.51;100430.47;4955161;28;20047;-44
2023/12/02 06:59:03;;;;;;;1.38;1.33;;;;;;;-0.46;98.54;100427.47;4961371;28;20501;-45
2023/12/02 07:01:32;;;;;;;7.50;2.88;;;;;;;-0.44;98.49;100430.69;4948183;28;20051;-47
2023/12/02 07:04:00;;;;;;;3.83;2.78;;;;;;;-0.44;98.55;100431.53;4944979;29;20051;-44
2023/12/02 07:06:28;;;;;;;2.90;1.85;;;;;;;-0.45;98.36;100424.44;4944792;29;20047;-45
2023/12/02 07:08:56;;;;;;;4.43;2.13;;;;;;;-0.45;98.27;100426.38;4928157;29;20062;-49
2023/12/02 07:11:23;;;;;;;1.90;1.67;;;;;;;-0.47;98.17;100423.09;4947562;29;20152;-48
2023/12/02 07:13:50;;;;;;;2.33;1.83;;;;;;;-0.47;98.28;100420.38;4930220;29;20051;-45
2023/12/02 07:16:18;;;;;;;2.42;1.65;;;;;;;-0.49;98.05;100428.00;4946971;29;20047;-45
2023/12/02 07:18:45;;;;;;;2.50;1.80;;;;;;;-0.51;98.20;100422.88;4944105;29;20047;-44
2023/12/02 07:21:13;;;;;;;2.45;1.95;;;;;;;-0.53;98.11;100429.69;4950002;29;20802;-44
2023/12/02 07:23:40;;;;;;;2.72;1.80;;;;;;;-0.53;98.37;100421.53;4944185;29;20497;-45
2023/12/02 07:26:08;;;;;;;4.38;1.95;;;;;;;-0.54;98.30;100419.88;4936705;29;20500;-44
2023/12/02 07:28:36;;;;;;;3.97;2.30;;;;;;;-0.54;98.26;100422.59;4934241;29;20047;-47
2023/12/02 07:31:03;;;;;;;2.08;1.75;;;;;;;-0.54;98.43;100419.88;4945136;29;20043;-45
2023/12/02 07:33:32;;;;;;;3.28;2.90;;;;;;;-0.53;98.39;100421.53;4949978;29;20044;-45
2023/12/02 07:36:00;;;;;;;3.22;2.35;;;;;;;-0.54;98.32;100419.88;4948628;29;20513;-45
2023/12/02 07:38:27;;;;;;;3.08;2.20;;;;;;;-0.57;98.18;100423.97;4951215;29;20532;-45
2023/12/02 07:40:55;;;;;;;4.18;3.22;;;;;;;-0.57;98.32;100421.25;4950374;29;20083;-46
2023/12/02 07:43:22;;;;;;;2.63;1.95;;;;;;;-0.61;98.12;100426.44;4945598;29;20050;-45
2023/12/02 07:45:50;;;;;;;5.80;2.28;;;;;;;-0.62;98.20;100426.72;4949903;29;20050;-47
2023/12/02 07:48:17;;;;;;;3.05;2.28;;;;;;;-0.64;98.26;100420.75;4950382;29;20055;-46
2023/12/02 07:50:45;;;;;;;2.10;1.90;;;;;;;-0.64;98.19;100426.19;4952144;29;20513;-45
2023/12/02 07:53:12;;;;;;;5.43;2.63;;;;;;;-0.65;98.24;100436.25;4950856;29;20047;-45
2023/12/02 07:55:39;;;;;;;3.72;2.33;;;;;;;-0.64;98.37;100420.75;4934036;29;20401;-50
2023/12/02 07:58:06;;;;;;;2.95;1.90;;;;;;;-0.64;98.14;100426.19;4949417;29;20055;-49
2023/12/02 08:00:34;;;;;;;3.10;1.75;;;;;;;-0.66;98.23;100423.75;4946334;29;20047;-47
2023/12/02 08:03:01;;;;;;;2.97;1.27;;;;;;;-0.66;98.15;100433.78;4969393;28;20051;-45
2023/12/02 08:05:28;;;;;;;6.00;2.03;;;;;;;-0.64;98.36;100442.50;4969974;28;20505;-46
2023/12/02 08:07:59;;;;;;;3.55;1.60;;;;;;;-0.63;98.27;100444.13;4967437;28;20517;-45
2023/12/02 08:10:26;;;;;;;4.65;2.10;;;;;;;-0.62;98.23;100445.75;4961063;28;20049;-46
2023/12/02 08:12:53;;;;;;;2.88;1.92;;;;;;;-0.56;98.32;100443.81;4969336;28;20043;-45
2023/12/02 08:15:20;;;;;;;4.15;2.15;;;;;;;-0.52;98.23;100440.25;4969082;28;20846;-45
2023/12/02 08:17:49;;;;;;;3.78;1.80;;;;;;;-0.48;98.14;100435.09;4956019;28;20046;-44
2023/12/02 08:20:16;;;;;;;3.08;2.35;;;;;;;-0.44;98.23;100441.56;4961778;28;20413;-45
2023/12/02 08:22:43;;;;;;;2.28;1.90;;;;;;;-0.42;98.43;100439.38;4965294;28;20055;-45
2023/12/02 08:25:11;;;;;;;5.68;1.98;;;;;;;-0.41;98.27;100433.69;4970004;28;20054;-45
2023/12/02 08:27:39;;;;;;;2.60;1.92;;;;;;;-0.41;98.13;100432.88;4965498;28;20051;-50
2023/12/02 08:30:07;;;;;;;2.10;1.60;;;;;;;-0.41;98.17;100441.84;4970011;28;20774;-47
2023/12/02 08:32:35;;;;;;;4.47;2.63;;;;;;;-0.42;98.05;100442.09;4969135;28;20098;-52
2023/12/02 08:35:02;;;;;;;4.47;2.35;;;;;;;-0.46;98.03;100450.03;4969595;28;20054;-51
2023/12/02 08:37:30;;;;;;;4.20;2.63;;;;;;;-0.47;98.17;100444.84;4966039;28;20047;-48
2023/12/02 08:40:01;;;;;;;3.90;2.42;;;;;;;-0.50;98.21;100442.72;4968648;28;20055;-48
2023/12/02 08:42:28;;;;;;;5.25;3.08;;;;;;;-0.52;98.18;100453.03;4969084;28;20386;-48
2023/12/02 08:44:55;;;;;;;6.63;3.25;;;;;;;-0.55;98.26;100451.69;4969599;28;20772;-51
2023/12/02 08:47:23;;;;;;;5.75;3.13;;;;;;;-0.58;97.89;100446.03;4968765;28;20049;-47
2023/12/02 08:49:50;;;;;;;7.68;4.55;;;;;;;-0.63;98.18;100458.53;4942455;28;20065;-45
2023/12/02 08:52:17;;;;;;;6.68;4.63;;;;;;;-0.62;98.33;100456.63;4967055;28;20043;-44
2023/12/02 08:54:45;;;;;;;10.85;4.95;;;;;;;-0.60;98.52;100462.59;4967715;28;20536;-48
2023/12/02 08:57:12;;;;;;;3.95;3.47;;;;;;;-0.58;98.54;100470.50;4963820;28;20035;-45
2023/12/02 08:59:39;;;;;;;4.50;3.60;;;;;;;-0.58;98.42;100462.34;4969198;28;20058;-47
2023/12/02 09:02:09;;;;;;;6.20;3.20;;;;;;;-0.57;98.71;100466.66;4957612;28;20054;-45
2023/12/02 09:04:37;;;;;;;6.22;3.42;;;;;;;-0.53;98.63;100471.25;4950515;29;20043;-48
2023/12/02 09:07:04;;;;;;;6.57;3.90;;;;;;;-0.51;98.47;100466.38;4942880;29;20051;-45
2023/12/02 09:09:31;;;;;;;6.38;3.72;;;;;;;-0.49;98.54;100468.81;4936355;29;20051;-46
2023/12/02 09:11:59;;;;;;;5.78;3.63;;;;;;;-0.49;98.62;100466.06;4944686;29;20044;-45
2023/12/02 09:14:27;;;;;;;5.20;4.10;;;;;;;-0.48;98.67;100463.09;4948198;29;20497;-45
2023/12/02 09:16:54;;;;;;;6.82;4.00;;;;;;;-0.46;98.88;100463.63;4931376;29;20059;-45
2023/12/02 09:19:42;;;;;;;6.30;4.07;;;;;;;-0.45;98.64;100464.44;4944747;29;20043;-48
2023/12/02 09:22:33;;;;;;;6.05;3.78;;;;;;;-0.40;98.91;100475.28;4943080;29;20516;-45
2023/12/02 09:25:01;;;;;;;6.72;3.92;;;;;;;-0.35;98.65;100467.09;4944202;29;20054;-45
2023/12/02 09:28:05;;;;;;;6.72;3.80;;;;;;;-0.29;98.85;100455.13;4947473;29;20528;-45
2023/12/02 09:30:34;;;;;;;5.57;3.70;;;;;;;-0.24;98.81;100468.69;4950005;29;20051;-45
2023/12/02 09:33:04;;;;;;;6.85;2.90;;;;;;;-0.19;98.73;100474.09;4930939;29;20059;-44
2023/12/02 09:35:32;;;;;;;5.35;2.65;;;;;;;-0.14;98.82;100474.06;4945448;29;20517;-45
2023/12/02 09:38:01;;;;;;;4.03;2.53;;;;;;;-0.07;98.73;100477.28;4940015;28;20500;-44
2023/12/02 09:40:50;;;;;;;3.50;2.72;;;;;;;-0.02;98.86;100474.53;4947124;29;20047;-49
2023/12/02 09:43:32;;;;;;;3.70;2.38;;;;;;;0.04;98.80;100469.84;4949857;29;20054;-44
2023/12/02 09:46:17;;;;;;;5.72;3.03;;;;;;;0.09;98.56;100472.53;4950655;29;20509;-45
2023/12/02 09:49:07;;;;;;;3.85;3.05;;;;;;;0.15;98.69;100471.41;4949686;29;20062;-44
2023/12/02 09:51:54;;;;;;;4.88;3.10;;;;;;;0.18;98.56;100474.41;4948273;29;20059;-44
2023/12/02 09:54:34;;;;;;;5.70;3.35;;;;;;;0.24;98.55;100475.19;4941397;29;20055;-44
2023/12/02 09:57:08;;;;;;;7.38;3.50;;;;;;;0.29;98.70;100475.94;4931173;29;20059;-44
2023/12/02 10:00:04;;;;;;;4.22;2.75;;;;;;;0.33;98.72;100479.72;4930100;29;20051;-44
2023/12/02 10:02:44;;;;;;;6.40;3.10;;;;;;;0.39;98.49;100480.50;4945587;28;20047;-48
2023/12/02 10:05:15;;;;;;;5.15;3.00;;;;;;;0.43;98.59;100484.25;4938904;28;20501;-44
2023/12/02 10:08:16;;;;;;;4.22;2.92;;;;;;;0.46;98.59;100478.25;4968410;28;20062;-47
2023/12/02 10:11:29;;;;;;;3.78;2.72;;;;;;;0.52;98.82;100483.38;4968403;28;20050;-44
2023/12/02 10:14:02;;;;;;;7.00;3.85;;;;;;;0.56;98.58;100476.25;4960400;28;20058;-46
2023/12/02 10:16:33;;;;;;;6.88;2.90;;;;;;;0.61;98.99;100481.66;4951710;28;20047;-43
2023/12/02 10:19:04;;;;;;;6.13;3.97;;;;;;;0.67;98.72;100484.34;4966424;28;20054;-51
2023/12/02 10:21:35;;;;;;;11.45;5.80;;;;;;;0.70;98.61;100467.41;4968186;28;20058;-49
2023/12/02 10:24:14;;;;;;;10.45;6.18;;;;;;;0.75;98.99;100470.09;4950752;28;20066;-47
2023/12/02 10:26:53;;;;;;;8.98;5.63;;;;;;;0.78;98.72;100470.34;4958803;28;20394;-49
2023/12/02 10:29:32;;;;;;;9.65;5.47;;;;;;;0.83;98.81;100474.91;4967067;28;20456;-45
2023/12/02 10:32:40;;;;;;;5.45;3.85;;;;;;;0.85;98.99;100472.75;4967984;28;20054;-45
2023/12/02 10:35:18;;;;;;;7.55;3.95;;;;;;;0.90;98.88;100475.41;4946478;28;20059;-44
2023/12/02 10:37:52;;;;;;;8.93;3.03;;;;;;;0.94;99.22;100468.28;4949112;28;20051;-45
2023/12/02 10:40:25;;;;;;;5.30;3.47;;;;;;;0.99;99.24;100470.94;4950052;28;20055;-50
2023/12/02 10:42:55;;;;;;;5.05;3.55;;;;;;;1.02;99.03;100471.19;4967762;28;20687;-46
2023/12/02 10:45:25;;;;;;;5.85;4.32;;;;;;;1.05;98.98;100467.91;4968346;28;20058;-44
2023/12/02 10:47:53;;;;;;;7.20;4.28;;;;;;;1.08;99.35;100463.78;4968089;28;20047;-44
2023/12/02 10:50:20;;;;;;;6.32;3.95;;;;;;;1.13;99.24;100472.72;4971421;28;20775;-44
2023/12/02 10:53:01;;;;;;;6.10;3.55;;;;;;;1.16;99.33;100460.41;4971993;28;20043;-44
2023/12/02 10:55:31;;;;;;;7.28;3.50;;;;;;;1.20;99.25;100458.72;4966781;28;20591;-44
2023/12/02 10:58:02;;;;;;;8.90;4.75;;;;;;;1.23;99.61;100458.97;4965144;28;20551;-45
2023/12/02 11:00:33;;;;;;;6.47;4.15;;;;;;;1.28;99.34;100463.53;4959692;28;20062;-45
2023/12/02 11:03:21;;;;;;;12.82;5.38;;;;;;;1.33;99.59;100463.47;4952080;28;20066;-45
2023/12/02 11:06:05;;;;;;;5.82;3.38;;;;;;;1.35;99.41;100453.06;4952365;29;20083;-44
2023/12/02 11:08:53;;;;;;;5.00;3.67;;;;;;;1.39;99.38;100467.78;4952440;29;20047;-44
2023/12/02 11:11:39;;;;;;;6.35;3.22;;;;;;;1.42;99.85;100459.00;4952469;29;20046;-45
2023/12/02 11:14:14;;;;;;;5.53;2.40;;;;;;;1.47;99.48;100455.41;4942433;29;20048;-46
2023/12/02 11:16:48;;;;;;;4.93;3.85;;;;;;;1.51;100.00;100451.00;4940509;29;20047;-49
2023/12/02 11:19:29;;;;;;;8.02;3.90;;;;;;;1.54;99.87;100450.38;4941795;29;20055;-45
2023/12/02 11:22:27;;;;;;;4.18;3.60;;;;;;;1.57;99.74;100456.09;4952061;29;20062;-48
2023/12/02 11:25:15;;;;;;;5.25;2.80;;;;;;;1.62;99.95;100447.81;4939051;29;20062;-46
2023/12/02 11:27:59;;;;;;;6.70;3.25;;;;;;;1.66;100.00;100442.59;4950218;29;20450;-50
2023/12/02 11:31:03;;;;;;;6.13;3.03;;;;;;;1.70;100.00;100441.72;4946645;29;20525;-46
2023/12/02 11:34:02;;;;;;;6.65;3.15;;;;;;;1.75;99.86;100438.91;4952652;29;20062;-45
2023/12/02 11:36:45;;;;;;;5.45;3.00;;;;;;;1.79;100.00;100437.25;4920310;29;20047;-45
2023/12/02 11:39:31;;;;;;;6.57;2.97;;;;;;;1.82;100.00;100433.91;4939301;29;20054;-47
2023/12/02 11:42:18;;;;;;;4.55;2.75;;;;;;;1.89;100.00;100436.25;4949510;29;20067;-46